createdAt,value
2022-10-10T00:01:40.146Z,9.80
2022-10-10T00:04:09.386Z,9.80
2022-10-10T00:06:37.279Z,9.90
2022-10-10T00:09:06.947Z,10.00
2022-10-10T00:11:36.173Z,9.90
2022-10-10T00:14:04.047Z,10.10
2022-10-10T00:16:31.861Z,10.30
2022-10-10T00:18:59.804Z,10.40
2022-10-10T00:21:28.923Z,10.20
2022-10-10T00:23:56.796Z,10.20
2022-10-10T00:26:24.645Z,10.10
2022-10-10T00:28:52.550Z,10.10
2022-10-10T00:31:20.443Z,9.90
2022-10-10T00:33:48.670Z,10.00
2022-10-10T00:36:16.564Z,10.00
2022-10-10T00:38:45.751Z,10.00
2022-10-10T00:41:13.658Z,10.00
2022-10-10T00:43:41.531Z,9.70
2022-10-10T00:46:09.508Z,9.50
2022-10-10T00:48:40.554Z,9.20
2022-10-10T00:51:11.956Z,9.20
2022-10-10T00:53:44.131Z,9.40
2022-10-10T00:56:15.031Z,9.60
2022-10-10T00:58:46.087Z,9.60
2022-10-10T01:01:13.977Z,9.60
2022-10-10T01:03:41.813Z,9.50
2022-10-10T01:06:10.045Z,9.50
2022-10-10T01:08:38.424Z,9.60
2022-10-10T01:11:22.418Z,9.60
2022-10-10T01:14:03.982Z,9.80
2022-10-10T01:16:42.098Z,9.90
2022-10-10T01:19:24.627Z,9.80
2022-10-10T01:22:03.737Z,9.80
2022-10-10T01:24:57.758Z,10.00
2022-10-10T01:27:35.207Z,9.90
2022-10-10T01:30:08.497Z,10.00
2022-10-10T01:32:42.187Z,9.90
2022-10-10T01:35:33.869Z,9.80
2022-10-10T01:38:11.452Z,9.90
2022-10-10T01:40:48.638Z,10.00
2022-10-10T01:43:17.913Z,10.00
2022-10-10T01:45:48.337Z,10.00
2022-10-10T01:48:18.475Z,10.00
2022-10-10T01:51:17.128Z,9.70
2022-10-10T01:53:53.260Z,9.50
2022-10-10T01:56:30.830Z,9.60
2022-10-10T01:59:15.175Z,9.70
2022-10-10T02:01:52.884Z,9.70
2022-10-10T02:04:31.800Z,9.50
2022-10-10T02:07:04.515Z,9.40
2022-10-10T02:09:36.846Z,9.20
2022-10-10T02:12:06.872Z,9.20
2022-10-10T02:14:39.436Z,9.30
2022-10-10T02:17:12.191Z,9.20
2022-10-10T02:19:44.137Z,9.10
2022-10-10T02:22:12.148Z,9.30
2022-10-10T02:24:40.064Z,9.30
2022-10-10T02:27:19.338Z,9.20
2022-10-10T02:29:49.700Z,9.20
2022-10-10T02:32:25.499Z,9.10
2022-10-10T02:34:57.039Z,9.00
2022-10-10T02:37:26.214Z,8.60
2022-10-10T02:39:59.691Z,8.60
2022-10-10T02:42:28.689Z,8.70
2022-10-10T02:44:57.466Z,8.50
2022-10-10T02:47:26.813Z,8.40
2022-10-10T02:49:54.720Z,8.60
2022-10-10T02:52:22.667Z,8.70
2022-10-10T02:54:50.447Z,8.30
2022-10-10T02:57:18.231Z,8.50
2022-10-10T02:59:46.010Z,8.50
2022-10-10T03:02:13.776Z,8.30
2022-10-10T03:04:44.709Z,8.40
2022-10-10T03:07:12.829Z,8.70
2022-10-10T03:09:40.648Z,8.80
2022-10-10T03:12:08.497Z,8.90
2022-10-10T03:14:36.454Z,8.90
2022-10-10T03:17:04.271Z,8.70
2022-10-10T03:19:32.056Z,8.90
2022-10-10T03:22:01.199Z,8.70
2022-10-10T03:24:29.404Z,8.90
2022-10-10T03:26:57.207Z,8.90
2022-10-10T03:29:25.373Z,8.70
2022-10-10T03:31:53.339Z,8.80
2022-10-10T03:34:21.123Z,8.90
2022-10-10T03:36:48.886Z,8.90
2022-10-10T03:39:18.107Z,8.80
2022-10-10T03:41:45.943Z,8.90
2022-10-10T03:44:13.736Z,8.90
2022-10-10T03:46:41.543Z,8.70
2022-10-10T03:49:09.335Z,8.60
2022-10-10T03:51:37.124Z,8.80
2022-10-10T03:54:05.288Z,8.70
2022-10-10T03:56:34.390Z,8.80
2022-10-10T03:59:03.771Z,8.80
2022-10-10T04:01:31.836Z,9.00
2022-10-10T04:03:59.678Z,9.10
2022-10-10T04:06:28.323Z,9.00
2022-10-10T04:08:56.165Z,9.00
2022-10-10T04:11:23.966Z,8.80
2022-10-10T04:13:53.083Z,8.80
2022-10-10T04:16:20.985Z,8.70
2022-10-10T04:18:48.842Z,8.70
2022-10-10T04:21:16.690Z,8.70
2022-10-10T04:23:44.501Z,8.50
2022-10-10T04:26:12.293Z,8.50
2022-10-10T04:28:40.122Z,8.60
2022-10-10T04:31:09.520Z,8.50
2022-10-10T04:33:37.371Z,8.60
2022-10-10T04:36:05.555Z,8.40
2022-10-10T04:38:33.361Z,8.60
2022-10-10T04:41:01.113Z,8.60
2022-10-10T04:43:28.908Z,8.60
2022-10-10T04:45:58.100Z,8.30
2022-10-10T04:48:27.297Z,8.20
2022-10-10T04:50:56.143Z,8.40
2022-10-10T04:53:23.970Z,8.70
2022-10-10T04:55:52.250Z,8.90
2022-10-10T04:58:20.313Z,9.00
2022-10-10T05:00:52.514Z,9.00
2022-10-10T05:03:20.459Z,8.90
2022-10-10T05:05:49.881Z,9.00
2022-10-10T05:08:18.197Z,8.90
2022-10-10T05:10:47.590Z,8.80
2022-10-10T05:13:16.716Z,8.80
2022-10-10T05:15:44.895Z,8.90
2022-10-10T05:18:12.650Z,8.60
2022-10-10T05:20:40.444Z,8.50
2022-10-10T05:23:09.564Z,8.30
2022-10-10T05:25:37.327Z,8.50
2022-10-10T05:28:05.194Z,8.60
2022-10-10T05:30:33.058Z,8.70
2022-10-10T05:33:00.879Z,8.90
2022-10-10T05:35:28.657Z,8.90
2022-10-10T05:37:56.448Z,9.00
2022-10-10T05:40:25.705Z,9.10
2022-10-10T05:42:53.837Z,9.00
2022-10-10T05:45:21.887Z,8.90
2022-10-10T05:47:49.745Z,8.90
2022-10-10T05:50:31.431Z,9.00
2022-10-10T05:52:59.317Z,9.00
2022-10-10T05:55:28.614Z,9.00
2022-10-10T05:57:56.547Z,9.20
2022-10-10T06:00:24.393Z,9.30
2022-10-10T06:02:52.513Z,9.20
2022-10-10T06:05:20.602Z,9.10
2022-10-10T06:08:05.482Z,9.00
2022-10-10T06:10:38.163Z,9.00
2022-10-10T06:13:06.005Z,9.00
2022-10-10T06:15:34.071Z,9.20
2022-10-10T06:18:01.851Z,9.20
2022-10-10T06:20:29.781Z,9.20
2022-10-10T06:22:57.655Z,9.00
2022-10-10T06:25:39.522Z,9.00
2022-10-10T06:28:10.766Z,9.10
2022-10-10T06:30:41.516Z,9.30
2022-10-10T06:33:09.433Z,9.60
2022-10-10T06:35:41.694Z,9.50
2022-10-10T06:38:09.574Z,9.60
2022-10-10T06:40:37.592Z,9.60
2022-10-10T06:43:08.713Z,9.60
2022-10-10T06:45:38.486Z,9.50
2022-10-10T06:48:06.583Z,9.60
2022-10-10T06:50:34.380Z,9.50
2022-10-10T06:53:02.253Z,9.50
2022-10-10T06:55:30.266Z,9.60
2022-10-10T06:57:58.929Z,9.70
2022-10-10T07:00:27.051Z,9.70
2022-10-10T07:02:56.276Z,9.70
2022-10-10T07:05:24.095Z,9.70
2022-10-10T07:07:54.060Z,9.70
2022-10-10T07:10:21.980Z,9.90
2022-10-10T07:12:49.772Z,10.00
2022-10-10T07:15:17.711Z,10.10
2022-10-10T07:17:48.194Z,10.10
2022-10-10T07:20:19.811Z,10.20
2022-10-10T07:22:47.604Z,10.20
2022-10-10T07:25:15.592Z,10.20
2022-10-10T07:27:43.380Z,10.40
2022-10-10T07:30:12.574Z,10.60
2022-10-10T07:32:40.378Z,10.90
2022-10-10T07:35:08.879Z,11.10
2022-10-10T07:37:38.044Z,11.50
2022-10-10T07:40:08.485Z,11.90
2022-10-10T07:42:36.555Z,12.30
2022-10-10T07:45:05.261Z,12.60
2022-10-10T07:47:33.293Z,13.00
2022-10-10T07:50:01.099Z,13.30
2022-10-10T07:52:28.847Z,13.60
2022-10-10T07:54:58.183Z,13.80
2022-10-10T07:57:25.973Z,14.00
2022-10-10T07:59:53.746Z,14.20
2022-10-10T08:02:21.531Z,14.40
2022-10-10T08:04:49.286Z,14.40
2022-10-10T08:07:17.049Z,14.60
2022-10-10T08:09:44.852Z,14.70
2022-10-10T08:12:14.038Z,14.80
2022-10-10T08:14:41.803Z,14.90
2022-10-10T08:17:09.673Z,15.00
2022-10-10T08:19:37.590Z,15.20
2022-10-10T08:22:05.402Z,15.30
2022-10-10T08:24:33.282Z,15.30
2022-10-10T08:27:01.052Z,15.30
2022-10-10T08:29:30.805Z,14.90
2022-10-10T08:31:58.605Z,15.10
2022-10-10T08:34:26.417Z,15.30
2022-10-10T08:36:54.246Z,15.30
2022-10-10T08:39:22.073Z,15.50
2022-10-10T08:41:52.470Z,15.70
2022-10-10T08:44:24.630Z,15.70
2022-10-10T08:46:57.692Z,15.90
2022-10-10T08:49:30.759Z,16.10
2022-10-10T08:52:04.101Z,16.30
2022-10-10T08:54:33.988Z,16.60
2022-10-10T08:57:05.319Z,16.60
2022-10-10T08:59:37.902Z,16.80
2022-10-10T09:02:38.289Z,16.90
2022-10-10T09:05:19.652Z,17.10
2022-10-10T09:08:05.103Z,17.10
2022-10-10T09:10:39.393Z,17.20
2022-10-10T09:13:19.437Z,17.10
2022-10-10T09:15:53.158Z,17.20
2022-10-10T09:18:35.606Z,17.30
2022-10-10T09:21:07.864Z,17.50
2022-10-10T09:23:41.855Z,17.60
2022-10-10T09:26:13.276Z,17.80
2022-10-10T09:28:46.335Z,17.70
2022-10-10T09:31:19.236Z,17.80
2022-10-10T09:33:54.640Z,18.00
2022-10-10T09:36:25.455Z,18.20
2022-10-10T09:38:57.596Z,18.10
2022-10-10T09:41:34.407Z,18.30
2022-10-10T09:44:07.456Z,18.50
2022-10-10T09:46:35.322Z,18.60
2022-10-10T09:49:05.873Z,18.60
2022-10-10T09:51:33.876Z,18.60
2022-10-10T09:54:02.068Z,18.60
2022-10-10T09:56:33.657Z,19.00
2022-10-10T09:59:01.518Z,19.20
2022-10-10T10:01:32.429Z,19.20
2022-10-10T10:04:28.461Z,19.50
2022-10-10T10:07:06.747Z,19.60
2022-10-10T10:09:34.858Z,19.50
2022-10-10T10:12:02.891Z,19.50
2022-10-10T10:14:33.081Z,19.60
2022-10-10T10:17:08.701Z,19.70
2022-10-10T10:19:40.381Z,19.80
2022-10-10T10:22:26.842Z,19.90
2022-10-10T10:24:55.353Z,20.10
2022-10-10T10:27:25.513Z,20.40
2022-10-10T10:29:55.552Z,20.80
2022-10-10T10:32:43.301Z,21.20
2022-10-10T10:35:20.649Z,21.40
2022-10-10T10:38:14.915Z,21.70
2022-10-10T10:40:49.999Z,21.70
2022-10-10T10:43:45.354Z,21.70
2022-10-10T10:46:25.985Z,21.70
2022-10-10T10:49:03.575Z,21.40
2022-10-10T10:51:52.089Z,21.40
2022-10-10T10:54:39.471Z,21.60
2022-10-10T10:57:31.958Z,21.80
2022-10-10T11:00:21.645Z,21.70
2022-10-10T11:03:35.293Z,21.60
2022-10-10T11:06:06.730Z,21.70
2022-10-10T11:08:48.893Z,21.70
2022-10-10T11:11:33.641Z,21.80
2022-10-10T11:14:06.605Z,21.60
2022-10-10T11:16:54.939Z,21.90
2022-10-10T11:19:28.405Z,22.00
2022-10-10T11:22:01.626Z,22.20
2022-10-10T11:24:39.818Z,22.20
2022-10-10T11:27:15.109Z,22.30
2022-10-10T11:30:01.438Z,22.30
2022-10-10T11:32:34.586Z,22.10
2022-10-10T11:35:17.208Z,22.20
2022-10-10T11:37:50.396Z,22.20
2022-10-10T11:40:31.227Z,22.30
2022-10-10T11:43:03.578Z,22.20
2022-10-10T11:45:36.132Z,22.10
2022-10-10T11:48:13.934Z,22.10
2022-10-10T11:50:43.895Z,22.30
2022-10-10T11:53:18.770Z,22.40
2022-10-10T11:55:54.135Z,22.50
2022-10-10T11:58:33.171Z,22.40
2022-10-10T12:01:07.789Z,22.40
2022-10-10T12:03:35.629Z,22.70
2022-10-10T12:06:08.750Z,22.40
2022-10-10T12:08:40.622Z,22.50
2022-10-10T12:11:16.277Z,22.60
2022-10-10T12:13:46.861Z,22.70
2022-10-10T12:16:18.321Z,22.80
2022-10-10T12:18:47.922Z,22.70
2022-10-10T12:21:17.870Z,22.90
2022-10-10T12:23:51.967Z,22.90
2022-10-10T12:26:24.332Z,22.70
2022-10-10T12:29:07.808Z,22.50
2022-10-10T12:31:37.200Z,22.20
2022-10-10T12:34:14.916Z,22.50
2022-10-10T12:37:22.128Z,22.60
2022-10-10T12:40:17.155Z,22.50
2022-10-10T12:43:05.917Z,22.50
2022-10-10T12:45:57.412Z,22.70
2022-10-10T12:48:26.303Z,22.20
2022-10-10T12:50:58.046Z,22.10
2022-10-10T12:53:29.300Z,22.30
2022-10-10T12:56:00.643Z,22.50
2022-10-10T12:58:32.295Z,22.80
2022-10-10T13:01:02.236Z,22.80
2022-10-10T13:03:35.506Z,22.50
2022-10-10T13:06:07.523Z,22.30
2022-10-10T13:08:37.599Z,22.20
2022-10-10T13:11:08.527Z,22.50
2022-10-10T13:13:37.759Z,22.60
2022-10-10T13:16:10.756Z,22.50
2022-10-10T13:18:40.419Z,22.40
2022-10-10T13:21:11.834Z,22.60
2022-10-10T13:23:44.550Z,22.70
2022-10-10T13:26:22.928Z,22.40
2022-10-10T13:28:54.215Z,22.40
2022-10-10T13:31:22.069Z,22.20
2022-10-10T13:33:50.417Z,22.40
2022-10-10T13:36:22.241Z,22.50
2022-10-10T13:38:50.795Z,22.10
2022-10-10T13:41:19.797Z,22.00
2022-10-10T13:43:47.756Z,21.80
2022-10-10T13:46:23.561Z,21.60
2022-10-10T13:48:51.565Z,21.20
2022-10-10T13:51:20.219Z,21.20
2022-10-10T13:53:50.872Z,21.10
2022-10-10T13:56:23.929Z,21.10
2022-10-10T13:58:54.445Z,21.30
2022-10-10T14:01:38.907Z,21.00
2022-10-10T14:04:17.316Z,21.20
2022-10-10T14:06:54.747Z,21.10
2022-10-10T14:09:29.897Z,21.00
2022-10-10T14:11:58.335Z,21.20
2022-10-10T14:14:33.373Z,21.40
2022-10-10T14:17:04.433Z,21.10
2022-10-10T14:19:33.015Z,21.10
2022-10-10T14:22:00.915Z,20.90
2022-10-10T14:24:28.766Z,21.00
2022-10-10T14:26:56.555Z,21.10
2022-10-10T14:29:24.753Z,21.20
2022-10-10T14:31:52.507Z,21.30
2022-10-10T14:34:21.682Z,21.30
2022-10-10T14:36:53.515Z,21.10
2022-10-10T14:39:21.302Z,21.20
2022-10-10T14:41:49.106Z,21.00
2022-10-10T14:44:16.911Z,20.70
2022-10-10T14:46:44.757Z,20.70
2022-10-10T14:49:19.214Z,20.30
2022-10-10T14:51:49.011Z,20.30
2022-10-10T14:54:16.957Z,20.60
2022-10-10T14:57:07.714Z,20.80
2022-10-10T14:59:47.542Z,20.70
2022-10-10T15:02:18.421Z,20.80
2022-10-10T15:04:46.245Z,20.90
2022-10-10T15:07:16.037Z,20.80
2022-10-10T15:09:57.673Z,20.80
2022-10-10T15:12:30.985Z,20.90
2022-10-10T15:14:58.891Z,20.90
2022-10-10T15:17:27.229Z,20.70
2022-10-10T15:19:55.123Z,20.70
2022-10-10T15:22:24.312Z,20.90
2022-10-10T15:24:52.351Z,20.90
2022-10-10T15:27:20.254Z,20.60
2022-10-10T15:29:48.141Z,20.60
2022-10-10T15:32:15.906Z,20.60
2022-10-10T15:34:43.884Z,20.60
2022-10-10T15:37:11.665Z,20.50
2022-10-10T15:39:41.267Z,20.30
2022-10-10T15:42:14.974Z,20.00
2022-10-10T15:44:46.812Z,20.10
2022-10-10T15:47:15.147Z,20.50
2022-10-10T15:49:43.653Z,20.60
2022-10-10T15:52:11.673Z,20.70
2022-10-10T15:54:40.955Z,20.70
2022-10-10T15:57:08.784Z,20.70
2022-10-10T15:59:39.112Z,20.80
2022-10-10T16:02:11.139Z,20.80
2022-10-10T16:04:39.174Z,20.70
2022-10-10T16:07:24.584Z,20.50
2022-10-10T16:09:56.222Z,20.50
2022-10-10T16:12:24.014Z,20.30
2022-10-10T16:14:51.809Z,20.10
2022-10-10T16:17:23.122Z,19.80
2022-10-10T16:19:51.729Z,20.00
2022-10-10T16:22:19.703Z,20.20
2022-10-10T16:25:21.342Z,20.30
2022-10-10T16:27:38.999Z,20.30
2022-10-10T16:30:08.051Z,20.20
2022-10-10T16:32:41.077Z,20.10
2022-10-10T16:35:10.547Z,19.90
2022-10-10T16:37:38.422Z,19.90
2022-10-10T16:40:07.470Z,19.90
2022-10-10T16:42:35.733Z,19.80
2022-10-10T16:45:07.105Z,19.80
2022-10-10T16:47:34.997Z,19.90
2022-10-10T16:50:02.986Z,20.00
2022-10-10T16:52:32.968Z,20.00
2022-10-10T16:55:00.795Z,19.70
2022-10-10T16:57:28.569Z,19.60
2022-10-10T16:59:56.516Z,19.40
2022-10-10T17:02:25.705Z,19.40
2022-10-10T17:04:53.582Z,19.20
2022-10-10T17:07:21.436Z,19.20
2022-10-10T17:09:49.272Z,19.20
2022-10-10T17:12:17.522Z,19.40
2022-10-10T17:14:45.354Z,19.70
2022-10-10T17:17:13.914Z,19.80
2022-10-10T17:19:43.263Z,19.80
2022-10-10T17:22:11.111Z,19.70
2022-10-10T17:24:38.969Z,19.50
2022-10-10T17:27:06.758Z,19.50
2022-10-10T17:29:34.608Z,19.70
2022-10-10T17:32:06.249Z,19.70
2022-10-10T17:34:34.907Z,19.70
2022-10-10T17:37:04.700Z,19.60
2022-10-10T17:39:32.929Z,19.50
2022-10-10T17:42:01.025Z,19.50
2022-10-10T17:44:29.061Z,19.40
2022-10-10T17:46:56.870Z,19.20
2022-10-10T17:49:25.031Z,18.90
2022-10-10T17:51:52.862Z,18.70
2022-10-10T17:54:22.055Z,18.70
2022-10-10T17:56:49.879Z,18.50
2022-10-10T17:59:17.721Z,18.30
2022-10-10T18:01:45.555Z,18.30
2022-10-10T18:04:16.370Z,18.60
2022-10-10T18:06:44.271Z,18.70
2022-10-10T18:09:12.183Z,19.00
2022-10-10T18:11:41.335Z,19.20
2022-10-10T18:14:09.163Z,19.00
2022-10-10T18:16:37.179Z,19.10
2022-10-10T18:19:05.939Z,19.00
2022-10-10T18:21:34.109Z,19.10
2022-10-10T18:24:02.017Z,18.90
2022-10-10T18:26:31.339Z,18.80
2022-10-10T18:29:00.547Z,19.00
2022-10-10T18:31:30.310Z,19.20
2022-10-10T18:33:58.153Z,19.00
2022-10-10T18:36:27.845Z,18.90
2022-10-10T18:38:58.966Z,19.00
2022-10-10T18:41:30.462Z,18.70
2022-10-10T18:43:59.915Z,18.70
2022-10-10T18:46:27.764Z,18.70
2022-10-10T18:48:55.772Z,18.60
2022-10-10T18:51:25.882Z,18.40
2022-10-10T18:53:57.210Z,18.60
2022-10-10T18:56:25.226Z,18.20
2022-10-10T18:58:55.966Z,18.20
2022-10-10T19:01:27.304Z,18.40
2022-10-10T19:03:56.207Z,18.30
2022-10-10T19:06:25.251Z,18.00
2022-10-10T19:08:55.637Z,18.00
2022-10-10T19:11:25.517Z,18.00
2022-10-10T19:13:53.496Z,18.00
2022-10-10T19:16:21.517Z,18.00
2022-10-10T19:18:50.662Z,18.10
2022-10-10T19:21:18.595Z,18.20
2022-10-10T19:23:46.656Z,17.70
2022-10-10T19:26:16.043Z,17.80
2022-10-10T19:28:44.534Z,17.80
2022-10-10T19:31:14.705Z,18.00
2022-10-10T19:33:43.697Z,17.90
2022-10-10T19:36:13.354Z,17.50
2022-10-10T19:38:43.025Z,17.30
2022-10-10T19:41:14.040Z,17.50
2022-10-10T19:43:42.623Z,17.30
2022-10-10T19:46:13.643Z,17.40
2022-10-10T19:48:41.930Z,17.40
2022-10-10T19:51:13.121Z,17.20
2022-10-10T19:53:42.171Z,17.40
2022-10-10T19:56:13.897Z,17.20
2022-10-10T19:58:42.282Z,17.00
2022-10-10T20:01:11.919Z,17.30
2022-10-10T20:03:40.130Z,17.20
2022-10-10T20:06:08.622Z,17.20
2022-10-10T20:08:38.063Z,17.20
2022-10-10T20:11:06.163Z,17.30
2022-10-10T20:13:34.624Z,17.20
2022-10-10T20:16:04.608Z,17.20
2022-10-10T20:18:34.369Z,17.30
2022-10-10T20:21:07.665Z,17.40
2022-10-10T20:23:36.978Z,17.10
2022-10-10T20:26:11.180Z,16.70
2022-10-10T20:28:39.132Z,16.40
2022-10-10T20:31:14.892Z,16.40
2022-10-10T20:33:43.449Z,16.40
2022-10-10T20:36:11.904Z,16.90
2022-10-10T20:38:41.317Z,16.90
2022-10-10T20:41:09.314Z,16.50
2022-10-10T20:43:38.957Z,16.20
2022-10-10T20:46:08.762Z,16.00
2022-10-10T20:48:37.244Z,16.10
2022-10-10T20:51:07.276Z,15.80
2022-10-10T20:53:35.979Z,15.70
2022-10-10T20:56:07.459Z,15.60
2022-10-10T20:58:36.730Z,15.70
2022-10-10T21:01:09.138Z,15.50
2022-10-10T21:03:37.972Z,15.50
2022-10-10T21:06:07.899Z,15.60
2022-10-10T21:08:36.029Z,15.60
2022-10-10T21:11:07.165Z,15.60
2022-10-10T21:13:36.730Z,15.30
2022-10-10T21:16:08.391Z,15.50
2022-10-10T21:18:36.627Z,15.60
2022-10-10T21:21:07.270Z,15.40
2022-10-10T21:23:37.761Z,15.50
2022-10-10T21:26:08.171Z,15.50
2022-10-10T21:28:37.250Z,15.50
2022-10-10T21:31:06.512Z,15.70
2022-10-10T21:33:35.458Z,15.60
2022-10-10T21:36:03.794Z,15.60
2022-10-10T21:38:32.211Z,15.60
2022-10-10T21:41:05.691Z,15.60
2022-10-10T21:43:35.794Z,15.30
2022-10-10T21:46:04.998Z,15.20
2022-10-10T21:48:33.753Z,15.20
2022-10-10T21:51:02.146Z,15.10
2022-10-10T21:53:29.984Z,15.00
2022-10-10T21:55:58.098Z,14.80
2022-10-10T21:58:26.471Z,14.70
2022-10-10T22:00:55.869Z,15.00
2022-10-10T22:03:23.787Z,15.00
2022-10-10T22:05:51.669Z,15.10
2022-10-10T22:08:19.459Z,15.10
2022-10-10T22:10:47.251Z,15.20
2022-10-10T22:13:15.037Z,15.30
2022-10-10T22:15:43.187Z,15.60
2022-10-10T22:18:12.338Z,15.70
2022-10-10T22:20:40.155Z,15.50
2022-10-10T22:23:07.932Z,15.20
2022-10-10T22:25:36.936Z,15.40
2022-10-10T22:28:06.432Z,15.40
2022-10-10T22:30:34.500Z,15.10
2022-10-10T22:33:02.609Z,14.70
2022-10-10T22:35:31.947Z,14.60
2022-10-10T22:37:59.742Z,14.90
2022-10-10T22:40:27.750Z,15.00
2022-10-10T22:42:55.773Z,15.00
2022-10-10T22:45:24.015Z,15.20
2022-10-10T22:47:51.930Z,15.20
2022-10-10T22:50:20.356Z,14.80
2022-10-10T22:52:49.537Z,14.50
2022-10-10T22:55:18.699Z,14.40
2022-10-10T22:57:47.146Z,13.90
2022-10-10T23:00:16.521Z,13.80
2022-10-10T23:02:44.378Z,13.70
2022-10-10T23:05:12.214Z,13.90
2022-10-10T23:07:40.079Z,14.10
2022-10-10T23:10:10.427Z,14.00
2022-10-10T23:12:38.525Z,14.30
2022-10-10T23:15:07.087Z,14.10
2022-10-10T23:17:35.931Z,14.00
2022-10-10T23:20:04.210Z,14.40
2022-10-10T23:22:31.991Z,14.50
2022-10-10T23:24:59.856Z,14.70
2022-10-10T23:27:29.144Z,14.70
2022-10-10T23:29:56.956Z,14.40
2022-10-10T23:32:29.221Z,14.10
2022-10-10T23:34:57.332Z,14.10
2022-10-10T23:37:25.529Z,14.20
2022-10-10T23:39:53.352Z,14.20
2022-10-10T23:42:21.304Z,14.20
2022-10-10T23:44:50.496Z,14.30
2022-10-10T23:47:18.400Z,14.30
2022-10-10T23:49:46.230Z,14.40
2022-10-10T23:52:14.067Z,14.40
2022-10-10T23:54:41.887Z,14.30
2022-10-10T23:57:09.643Z,14.00
2022-10-10T23:59:37.479Z,13.80
